sensor_id;sensor_type;location;lat;lon;timestamp;temperature;humidity
25360;DHT22;13311;51.386;0.016;2023-07-28T00:02:31;22.70;97.60
25360;DHT22;13311;51.386;0.016;2023-07-28T00:07:32;22.70;97.60
25360;DHT22;13311;51.386;0.016;2023-07-28T00:12:35;22.70;97.20
25360;DHT22;13311;51.386;0.016;2023-07-28T00:17:36;22.70;97.30
25360;DHT22;13311;51.386;0.016;2023-07-28T00:22:37;22.60;97.30
25360;DHT22;13311;51.386;0.016;2023-07-28T00:27:37;22.50;97.30
25360;DHT22;13311;51.386;0.016;2023-07-28T00:32:38;22.50;97.20
25360;DHT22;13311;51.386;0.016;2023-07-28T00:37:39;22.50;97.20
25360;DHT22;13311;51.386;0.016;2023-07-28T00:42:39;22.50;97.20
25360;DHT22;13311;51.386;0.016;2023-07-28T00:47:40;22.40;97.40
25360;DHT22;13311;51.386;0.016;2023-07-28T00:52:42;22.40;97.60
25360;DHT22;13311;51.386;0.016;2023-07-28T00:57:42;22.40;97.60
25360;DHT22;13311;51.386;0.016;2023-07-28T01:02:44;22.40;97.70
25360;DHT22;13311;51.386;0.016;2023-07-28T01:07:55;22.40;97.70
25360;DHT22;13311;51.386;0.016;2023-07-28T01:13:03;22.50;97.50
25360;DHT22;13311;51.386;0.016;2023-07-28T01:18:04;22.50;97.40
25360;DHT22;13311;51.386;0.016;2023-07-28T01:23:19;22.50;97.50
25360;DHT22;13311;51.386;0.016;2023-07-28T01:28:21;22.50;97.60
25360;DHT22;13311;51.386;0.016;2023-07-28T01:33:22;22.50;97.60
25360;DHT22;13311;51.386;0.016;2023-07-28T01:38:23;22.60;97.30
25360;DHT22;13311;51.386;0.016;2023-07-28T01:43:24;22.60;97.30
25360;DHT22;13311;51.386;0.016;2023-07-28T01:48:25;22.60;97.40
25360;DHT22;13311;51.386;0.016;2023-07-28T01:53:26;22.70;97.30
25360;DHT22;13311;51.386;0.016;2023-07-28T01:58:27;22.70;97.00
25360;DHT22;13311;51.386;0.016;2023-07-28T02:03:27;22.70;96.70
25360;DHT22;13311;51.386;0.016;2023-07-28T02:08:28;22.90;96.20
25360;DHT22;13311;51.386;0.016;2023-07-28T02:13:29;22.90;96.20
25360;DHT22;13311;51.386;0.016;2023-07-28T02:18:29;22.80;96.20
25360;DHT22;13311;51.386;0.016;2023-07-28T02:23:30;22.80;96.00
25360;DHT22;13311;51.386;0.016;2023-07-28T02:28:31;22.80;96.20
25360;DHT22;13311;51.386;0.016;2023-07-28T02:33:32;22.80;96.20
25360;DHT22;13311;51.386;0.016;2023-07-28T02:38:35;22.80;96.10
25360;DHT22;13311;51.386;0.016;2023-07-28T02:43:36;22.70;96.20
25360;DHT22;13311;51.386;0.016;2023-07-28T02:48:37;22.90;95.20
25360;DHT22;13311;51.386;0.016;2023-07-28T02:53:37;22.90;94.50
25360;DHT22;13311;51.386;0.016;2023-07-28T02:58:38;22.80;94.40
25360;DHT22;13311;51.386;0.016;2023-07-28T03:03:40;22.80;94.20
25360;DHT22;13311;51.386;0.016;2023-07-28T03:08:41;22.80;94.10
25360;DHT22;13311;51.386;0.016;2023-07-28T03:13:41;22.70;94.00
25360;DHT22;13311;51.386;0.016;2023-07-28T03:18:42;22.50;94.40
25360;DHT22;13311;51.386;0.016;2023-07-28T03:23:43;22.50;94.40
25360;DHT22;13311;51.386;0.016;2023-07-28T03:28:43;22.50;94.40
25360;DHT22;13311;51.386;0.016;2023-07-28T03:33:44;22.50;94.20
25360;DHT22;13311;51.386;0.016;2023-07-28T03:38:45;22.40;94.60
25360;DHT22;13311;51.386;0.016;2023-07-28T03:43:46;22.40;95.30
25360;DHT22;13311;51.386;0.016;2023-07-28T03:48:47;22.30;95.50
25360;DHT22;13311;51.386;0.016;2023-07-28T03:53:48;22.20;95.90
25360;DHT22;13311;51.386;0.016;2023-07-28T03:58:48;22.10;96.00
25360;DHT22;13311;51.386;0.016;2023-07-28T04:03:49;22.00;96.20
25360;DHT22;13311;51.386;0.016;2023-07-28T04:08:50;22.00;96.20
25360;DHT22;13311;51.386;0.016;2023-07-28T04:13:50;22.00;95.90
25360;DHT22;13311;51.386;0.016;2023-07-28T04:18:51;22.00;96.00
25360;DHT22;13311;51.386;0.016;2023-07-28T04:23:52;22.00;96.10
25360;DHT22;13311;51.386;0.016;2023-07-28T04:28:52;21.90;96.30
25360;DHT22;13311;51.386;0.016;2023-07-28T04:33:53;21.90;96.50
25360;DHT22;13311;51.386;0.016;2023-07-28T04:38:54;21.80;96.30
25360;DHT22;13311;51.386;0.016;2023-07-28T04:43:55;21.80;95.90
25360;DHT22;13311;51.386;0.016;2023-07-28T04:48:56;21.80;95.50
25360;DHT22;13311;51.386;0.016;2023-07-28T04:53:57;21.90;95.20
25360;DHT22;13311;51.386;0.016;2023-07-28T04:58:58;21.90;95.20
25360;DHT22;13311;51.386;0.016;2023-07-28T05:03:59;21.90;94.90
25360;DHT22;13311;51.386;0.016;2023-07-28T05:08:59;22.00;95.00
25360;DHT22;13311;51.386;0.016;2023-07-28T05:14:00;21.90;94.90
25360;DHT22;13311;51.386;0.016;2023-07-28T05:19:01;22.00;95.00
25360;DHT22;13311;51.386;0.016;2023-07-28T05:24:02;22.00;95.00
25360;DHT22;13311;51.386;0.016;2023-07-28T05:29:02;21.90;95.10
25360;DHT22;13311;51.386;0.016;2023-07-28T05:34:04;22.00;95.20
25360;DHT22;13311;51.386;0.016;2023-07-28T05:39:04;22.00;95.70
25360;DHT22;13311;51.386;0.016;2023-07-28T05:44:05;22.00;96.00
25360;DHT22;13311;51.386;0.016;2023-07-28T05:49:06;22.00;96.40
25360;DHT22;13311;51.386;0.016;2023-07-28T05:54:06;22.00;96.70
25360;DHT22;13311;51.386;0.016;2023-07-28T05:59:07;21.90;96.80
25360;DHT22;13311;51.386;0.016;2023-07-28T06:04:08;22.00;97.20
25360;DHT22;13311;51.386;0.016;2023-07-28T06:09:09;22.20;96.80
25360;DHT22;13311;51.386;0.016;2023-07-28T06:14:09;22.30;95.90
25360;DHT22;13311;51.386;0.016;2023-07-28T06:19:10;22.40;95.50
25360;DHT22;13311;51.386;0.016;2023-07-28T06:24:11;22.60;95.10
25360;DHT22;13311;51.386;0.016;2023-07-28T06:29:12;22.80;94.70
25360;DHT22;13311;51.386;0.016;2023-07-28T06:34:13;23.00;94.20
25360;DHT22;13311;51.386;0.016;2023-07-28T06:39:14;23.10;93.50
25360;DHT22;13311;51.386;0.016;2023-07-28T06:44:14;23.10;93.30
25360;DHT22;13311;51.386;0.016;2023-07-28T06:49:15;23.00;93.30
25360;DHT22;13311;51.386;0.016;2023-07-28T06:54:16;22.90;93.20
25360;DHT22;13311;51.386;0.016;2023-07-28T06:59:17;22.80;93.50
25360;DHT22;13311;51.386;0.016;2023-07-28T07:04:19;22.90;93.00
25360;DHT22;13311;51.386;0.016;2023-07-28T07:09:19;22.90;92.90
25360;DHT22;13311;51.386;0.016;2023-07-28T07:14:20;23.10;92.80
25360;DHT22;13311;51.386;0.016;2023-07-28T07:19:21;23.20;92.30
25360;DHT22;13311;51.386;0.016;2023-07-28T07:24:22;23.30;91.80
25360;DHT22;13311;51.386;0.016;2023-07-28T07:29:22;23.40;91.70
25360;DHT22;13311;51.386;0.016;2023-07-28T07:34:23;23.30;91.90
25360;DHT22;13311;51.386;0.016;2023-07-28T07:39:24;23.30;91.90
25360;DHT22;13311;51.386;0.016;2023-07-28T07:44:24;23.40;91.90
25360;DHT22;13311;51.386;0.016;2023-07-28T07:49:25;23.40;91.70
25360;DHT22;13311;51.386;0.016;2023-07-28T07:54:26;23.50;91.20
25360;DHT22;13311;51.386;0.016;2023-07-28T07:59:27;23.50;91.50
25360;DHT22;13311;51.386;0.016;2023-07-28T08:04:31;23.40;91.80
25360;DHT22;13311;51.386;0.016;2023-07-28T08:09:31;23.30;92.10
25360;DHT22;13311;51.386;0.016;2023-07-28T08:14:34;23.30;92.10
25360;DHT22;13311;51.386;0.016;2023-07-28T08:19:34;23.40;92.00
25360;DHT22;13311;51.386;0.016;2023-07-28T08:24:35;23.50;91.80
25360;DHT22;13311;51.386;0.016;2023-07-28T08:29:36;23.70;91.20
25360;DHT22;13311;51.386;0.016;2023-07-28T08:34:37;23.50;91.50
25360;DHT22;13311;51.386;0.016;2023-07-28T08:39:37;23.50;91.90
25360;DHT22;13311;51.386;0.016;2023-07-28T08:44:38;23.60;92.10
25360;DHT22;13311;51.386;0.016;2023-07-28T08:49:39;24.00;91.20
25360;DHT22;13311;51.386;0.016;2023-07-28T08:54:40;24.20;90.60
25360;DHT22;13311;51.386;0.016;2023-07-28T08:59:40;24.20;90.80
25360;DHT22;13311;51.386;0.016;2023-07-28T09:04:48;24.30;90.80
25360;DHT22;13311;51.386;0.016;2023-07-28T09:09:49;24.40;90.30
25360;DHT22;13311;51.386;0.016;2023-07-28T09:14:59;24.50;89.90
25360;DHT22;13311;51.386;0.016;2023-07-28T09:20:00;24.40;90.30
25360;DHT22;13311;51.386;0.016;2023-07-28T09:25:14;24.50;90.30
25360;DHT22;13311;51.386;0.016;2023-07-28T09:30:16;24.40;90.30
25360;DHT22;13311;51.386;0.016;2023-07-28T09:35:17;24.50;90.00
25360;DHT22;13311;51.386;0.016;2023-07-28T09:40:21;24.50;90.40
25360;DHT22;13311;51.386;0.016;2023-07-28T09:45:22;24.60;89.30
25360;DHT22;13311;51.386;0.016;2023-07-28T09:50:24;24.70;89.30
25360;DHT22;13311;51.386;0.016;2023-07-28T09:55:28;24.70;89.40
25360;DHT22;13311;51.386;0.016;2023-07-28T10:00:29;24.70;90.20
25360;DHT22;13311;51.386;0.016;2023-07-28T10:05:32;24.90;90.10
25360;DHT22;13311;51.386;0.016;2023-07-28T10:10:34;25.20;89.40
25360;DHT22;13311;51.386;0.016;2023-07-28T10:15:37;25.50;88.00
25360;DHT22;13311;51.386;0.016;2023-07-28T10:20:40;25.60;87.30
25360;DHT22;13311;51.386;0.016;2023-07-28T10:25:43;25.70;86.70
25360;DHT22;13311;51.386;0.016;2023-07-28T10:30:52;25.60;87.40
25360;DHT22;13311;51.386;0.016;2023-07-28T10:35:54;25.70;87.40
25360;DHT22;13311;51.386;0.016;2023-07-28T10:41:06;25.80;86.70
25360;DHT22;13311;51.386;0.016;2023-07-28T10:46:15;25.90;85.70
25360;DHT22;13311;51.386;0.016;2023-07-28T10:51:21;25.90;85.20
25360;DHT22;13311;51.386;0.016;2023-07-28T10:56:25;25.80;85.20
25360;DHT22;13311;51.386;0.016;2023-07-28T11:01:36;25.80;85.50
25360;DHT22;13311;51.386;0.016;2023-07-28T11:06:44;25.60;85.00
25360;DHT22;13311;51.386;0.016;2023-07-28T11:11:46;25.40;86.00
25360;DHT22;13311;51.386;0.016;2023-07-28T11:16:47;25.50;86.20
25360;DHT22;13311;51.386;0.016;2023-07-28T11:21:48;25.40;86.10
25360;DHT22;13311;51.386;0.016;2023-07-28T11:26:52;25.40;86.00
25360;DHT22;13311;51.386;0.016;2023-07-28T11:31:53;25.40;85.70
25360;DHT22;13311;51.386;0.016;2023-07-28T11:36:54;25.40;86.60
25360;DHT22;13311;51.386;0.016;2023-07-28T11:41:56;25.50;86.30
25360;DHT22;13311;51.386;0.016;2023-07-28T11:46:57;25.50;86.00
25360;DHT22;13311;51.386;0.016;2023-07-28T11:51:58;25.50;86.20
25360;DHT22;13311;51.386;0.016;2023-07-28T11:56:59;25.50;86.00
25360;DHT22;13311;51.386;0.016;2023-07-28T12:02:04;25.50;86.20
25360;DHT22;13311;51.386;0.016;2023-07-28T12:07:15;25.40;86.10
25360;DHT22;13311;51.386;0.016;2023-07-28T12:12:20;25.40;86.50
25360;DHT22;13311;51.386;0.016;2023-07-28T12:17:24;25.40;87.10
25360;DHT22;13311;51.386;0.016;2023-07-28T12:22:27;25.60;86.60
25360;DHT22;13311;51.386;0.016;2023-07-28T12:27:28;25.90;86.50
25360;DHT22;13311;51.386;0.016;2023-07-28T12:32:29;26.40;85.10
25360;DHT22;13311;51.386;0.016;2023-07-28T12:37:30;26.50;84.40
25360;DHT22;13311;51.386;0.016;2023-07-28T12:42:30;26.70;83.90
25360;DHT22;13311;51.386;0.016;2023-07-28T12:47:31;26.90;83.70
25360;DHT22;13311;51.386;0.016;2023-07-28T12:52:32;26.80;82.40
25360;DHT22;13311;51.386;0.016;2023-07-28T12:57:33;26.70;82.80
25360;DHT22;13311;51.386;0.016;2023-07-28T13:02:34;26.80;82.80
25360;DHT22;13311;51.386;0.016;2023-07-28T13:07:34;26.70;82.40
25360;DHT22;13311;51.386;0.016;2023-07-28T13:12:35;26.60;83.50
25360;DHT22;13311;51.386;0.016;2023-07-28T13:17:36;26.40;84.00
25360;DHT22;13311;51.386;0.016;2023-07-28T13:22:37;26.20;84.50
25360;DHT22;13311;51.386;0.016;2023-07-28T13:27:38;26.20;84.60
25360;DHT22;13311;51.386;0.016;2023-07-28T13:32:39;26.20;85.00
25360;DHT22;13311;51.386;0.016;2023-07-28T13:37:39;25.90;85.40
25360;DHT22;13311;51.386;0.016;2023-07-28T13:42:40;25.80;86.70
25360;DHT22;13311;51.386;0.016;2023-07-28T13:47:41;25.80;86.60
25360;DHT22;13311;51.386;0.016;2023-07-28T13:52:42;25.90;86.80
25360;DHT22;13311;51.386;0.016;2023-07-28T13:57:43;25.90;86.70
25360;DHT22;13311;51.386;0.016;2023-07-28T14:02:44;26.10;86.80
25360;DHT22;13311;51.386;0.016;2023-07-28T14:07:44;26.30;86.90
25360;DHT22;13311;51.386;0.016;2023-07-28T14:12:46;26.70;85.80
25360;DHT22;13311;51.386;0.016;2023-07-28T14:17:47;26.70;85.70
25360;DHT22;13311;51.386;0.016;2023-07-28T14:22:47;26.60;84.30
25360;DHT22;13311;51.386;0.016;2023-07-28T14:27:48;26.50;84.70
25360;DHT22;13311;51.386;0.016;2023-07-28T14:32:49;26.50;83.90
25360;DHT22;13311;51.386;0.016;2023-07-28T14:37:50;26.70;82.50
25360;DHT22;13311;51.386;0.016;2023-07-28T14:42:52;26.60;79.80
25360;DHT22;13311;51.386;0.016;2023-07-28T14:47:52;26.70;82.80
25360;DHT22;13311;51.386;0.016;2023-07-28T14:52:53;26.90;83.40
25360;DHT22;13311;51.386;0.016;2023-07-28T14:57:54;27.00;81.60
25360;DHT22;13311;51.386;0.016;2023-07-28T15:02:54;27.00;80.70
25360;DHT22;13311;51.386;0.016;2023-07-28T15:07:55;26.80;81.10
25360;DHT22;13311;51.386;0.016;2023-07-28T15:12:56;26.50;83.10
25360;DHT22;13311;51.386;0.016;2023-07-28T15:17:57;26.50;81.80
25360;DHT22;13311;51.386;0.016;2023-07-28T15:22:58;26.40;81.80
25360;DHT22;13311;51.386;0.016;2023-07-28T15:27:59;26.40;82.40
25360;DHT22;13311;51.386;0.016;2023-07-28T15:33:00;26.70;83.40
25360;DHT22;13311;51.386;0.016;2023-07-28T15:38:01;26.80;83.00
25360;DHT22;13311;51.386;0.016;2023-07-28T15:43:01;26.90;82.50
25360;DHT22;13311;51.386;0.016;2023-07-28T15:48:02;26.70;81.10
25360;DHT22;13311;51.386;0.016;2023-07-28T15:53:03;26.60;81.00
25360;DHT22;13311;51.386;0.016;2023-07-28T15:58:04;26.40;81.70
25360;DHT22;13311;51.386;0.016;2023-07-28T16:03:05;26.40;81.90
25360;DHT22;13311;51.386;0.016;2023-07-28T16:08:05;26.50;81.50
25360;DHT22;13311;51.386;0.016;2023-07-28T16:13:06;26.50;82.60
25360;DHT22;13311;51.386;0.016;2023-07-28T16:18:07;26.40;80.10
25360;DHT22;13311;51.386;0.016;2023-07-28T16:23:09;26.50;81.10
25360;DHT22;13311;51.386;0.016;2023-07-28T16:28:09;26.60;81.70
25360;DHT22;13311;51.386;0.016;2023-07-28T16:33:10;26.40;81.00
25360;DHT22;13311;51.386;0.016;2023-07-28T16:38:11;26.00;82.00
25360;DHT22;13311;51.386;0.016;2023-07-28T16:43:12;25.90;82.70
25360;DHT22;13311;51.386;0.016;2023-07-28T16:48:12;25.90;82.00
25360;DHT22;13311;51.386;0.016;2023-07-28T16:53:13;25.70;81.10
25360;DHT22;13311;51.386;0.016;2023-07-28T16:58:15;25.50;81.80
25360;DHT22;13311;51.386;0.016;2023-07-28T17:03:16;25.50;82.10
25360;DHT22;13311;51.386;0.016;2023-07-28T17:08:17;25.30;82.20
25360;DHT22;13311;51.386;0.016;2023-07-28T17:13:17;25.40;84.80
25360;DHT22;13311;51.386;0.016;2023-07-28T17:18:20;25.50;83.80
25360;DHT22;13311;51.386;0.016;2023-07-28T17:23:21;25.40;81.60
25360;DHT22;13311;51.386;0.016;2023-07-28T17:28:21;25.30;81.80
25360;DHT22;13311;51.386;0.016;2023-07-28T17:33:22;25.40;81.60
25360;DHT22;13311;51.386;0.016;2023-07-28T17:38:23;25.30;80.80
25360;DHT22;13311;51.386;0.016;2023-07-28T17:43:23;25.10;81.70
25360;DHT22;13311;51.386;0.016;2023-07-28T17:48:24;24.90;81.30
25360;DHT22;13311;51.386;0.016;2023-07-28T17:53:26;24.90;81.00
25360;DHT22;13311;51.386;0.016;2023-07-28T17:58:26;24.90;80.50
25360;DHT22;13311;51.386;0.016;2023-07-28T18:03:27;24.80;81.70
25360;DHT22;13311;51.386;0.016;2023-07-28T18:08:28;24.80;81.00
25360;DHT22;13311;51.386;0.016;2023-07-28T18:13:28;24.80;80.40
25360;DHT22;13311;51.386;0.016;2023-07-28T18:18:29;24.70;81.00
25360;DHT22;13311;51.386;0.016;2023-07-28T18:23:30;24.80;81.10
25360;DHT22;13311;51.386;0.016;2023-07-28T18:28:30;24.70;81.20
25360;DHT22;13311;51.386;0.016;2023-07-28T18:33:31;24.40;82.30
25360;DHT22;13311;51.386;0.016;2023-07-28T18:38:32;24.20;83.80
25360;DHT22;13311;51.386;0.016;2023-07-28T18:43:32;24.00;84.10
25360;DHT22;13311;51.386;0.016;2023-07-28T18:48:34;24.00;84.20
25360;DHT22;13311;51.386;0.016;2023-07-28T18:53:34;23.90;84.00
25360;DHT22;13311;51.386;0.016;2023-07-28T18:58:35;23.70;84.70
25360;DHT22;13311;51.386;0.016;2023-07-28T19:03:36;23.60;84.80
25360;DHT22;13311;51.386;0.016;2023-07-28T19:08:37;23.60;85.30
25360;DHT22;13311;51.386;0.016;2023-07-28T19:13:40;23.60;85.30
25360;DHT22;13311;51.386;0.016;2023-07-28T19:18:40;23.60;85.70
25360;DHT22;13311;51.386;0.016;2023-07-28T19:23:41;23.50;86.50
25360;DHT22;13311;51.386;0.016;2023-07-28T19:28:42;23.40;86.60
25360;DHT22;13311;51.386;0.016;2023-07-28T19:33:43;23.20;87.30
25360;DHT22;13311;51.386;0.016;2023-07-28T19:38:43;23.10;87.60
25360;DHT22;13311;51.386;0.016;2023-07-28T19:43:44;23.10;87.80
25360;DHT22;13311;51.386;0.016;2023-07-28T19:48:45;23.10;87.60
25360;DHT22;13311;51.386;0.016;2023-07-28T19:53:45;23.00;87.80
25360;DHT22;13311;51.386;0.016;2023-07-28T19:58:46;22.90;87.90
25360;DHT22;13311;51.386;0.016;2023-07-28T20:03:47;22.80;88.40
25360;DHT22;13311;51.386;0.016;2023-07-28T20:08:48;22.80;88.60
25360;DHT22;13311;51.386;0.016;2023-07-28T20:13:49;22.80;88.80
25360;DHT22;13311;51.386;0.016;2023-07-28T20:18:50;22.80;88.90
25360;DHT22;13311;51.386;0.016;2023-07-28T20:23:51;22.80;88.60
25360;DHT22;13311;51.386;0.016;2023-07-28T20:28:52;22.80;88.90
25360;DHT22;13311;51.386;0.016;2023-07-28T20:33:53;22.70;89.30
25360;DHT22;13311;51.386;0.016;2023-07-28T20:38:53;22.50;89.90
25360;DHT22;13311;51.386;0.016;2023-07-28T20:43:54;22.50;90.10
25360;DHT22;13311;51.386;0.016;2023-07-28T20:48:55;22.50;90.20
25360;DHT22;13311;51.386;0.016;2023-07-28T20:53:55;22.40;90.50
25360;DHT22;13311;51.386;0.016;2023-07-28T20:58:56;22.40;90.50
25360;DHT22;13311;51.386;0.016;2023-07-28T21:03:57;22.50;90.40
25360;DHT22;13311;51.386;0.016;2023-07-28T21:08:58;22.50;90.30
25360;DHT22;13311;51.386;0.016;2023-07-28T21:13:58;22.50;90.60
25360;DHT22;13311;51.386;0.016;2023-07-28T21:18:59;22.40;90.90
25360;DHT22;13311;51.386;0.016;2023-07-28T21:24:00;22.30;91.00
25360;DHT22;13311;51.386;0.016;2023-07-28T21:29:00;22.30;91.00
25360;DHT22;13311;51.386;0.016;2023-07-28T21:34:03;22.30;91.20
25360;DHT22;13311;51.386;0.016;2023-07-28T21:39:06;22.30;90.90
25360;DHT22;13311;51.386;0.016;2023-07-28T21:44:07;22.30;91.30
25360;DHT22;13311;51.386;0.016;2023-07-28T21:49:08;22.30;91.40
25360;DHT22;13311;51.386;0.016;2023-07-28T21:54:08;22.10;91.80
25360;DHT22;13311;51.386;0.016;2023-07-28T21:59:09;22.10;91.80
25360;DHT22;13311;51.386;0.016;2023-07-28T22:04:10;22.10;92.10
25360;DHT22;13311;51.386;0.016;2023-07-28T22:09:11;22.00;92.30
25360;DHT22;13311;51.386;0.016;2023-07-28T22:14:11;22.00;92.50
25360;DHT22;13311;51.386;0.016;2023-07-28T22:19:12;22.00;92.40
25360;DHT22;13311;51.386;0.016;2023-07-28T22:24:13;22.00;92.60
25360;DHT22;13311;51.386;0.016;2023-07-28T22:29:14;22.10;92.30
25360;DHT22;13311;51.386;0.016;2023-07-28T22:34:15;22.10;92.40
25360;DHT22;13311;51.386;0.016;2023-07-28T22:39:15;22.10;92.60
25360;DHT22;13311;51.386;0.016;2023-07-28T22:44:16;21.90;92.80
25360;DHT22;13311;51.386;0.016;2023-07-28T22:49:17;21.80;93.20
25360;DHT22;13311;51.386;0.016;2023-07-28T22:54:19;21.80;93.50
25360;DHT22;13311;51.386;0.016;2023-07-28T22:59:20;21.90;93.00
25360;DHT22;13311;51.386;0.016;2023-07-28T23:04:20;21.90;93.30
25360;DHT22;13311;51.386;0.016;2023-07-28T23:09:21;21.80;93.70
25360;DHT22;13311;51.386;0.016;2023-07-28T23:14:22;21.80;93.80
25360;DHT22;13311;51.386;0.016;2023-07-28T23:19:23;21.70;94.00
25360;DHT22;13311;51.386;0.016;2023-07-28T23:24:24;21.60;94.10
25360;DHT22;13311;51.386;0.016;2023-07-28T23:29:25;21.70;94.10
25360;DHT22;13311;51.386;0.016;2023-07-28T23:34:25;21.70;94.20
25360;DHT22;13311;51.386;0.016;2023-07-28T23:39:26;21.60;93.90
25360;DHT22;13311;51.386;0.016;2023-07-28T23:44:27;21.70;94.10
25360;DHT22;13311;51.386;0.016;2023-07-28T23:49:28;21.60;94.50
25360;DHT22;13311;51.386;0.016;2023-07-28T23:54:29;21.70;94.40
25360;DHT22;13311;51.386;0.016;2023-07-28T23:59:30;21.70;94.60
